createdAt,value
2022-12-31T00:01:15.668Z,98938.80
2022-12-31T00:03:44.789Z,98947.40
2022-12-31T00:06:25.582Z,98941.00
2022-12-31T00:08:56.559Z,98939.00
2022-12-31T00:11:26.759Z,98943.00
2022-12-31T00:13:55.448Z,98944.40
2022-12-31T00:16:32.881Z,98936.40
2022-12-31T00:19:01.109Z,98937.80
2022-12-31T00:21:31.654Z,98942.60
2022-12-31T00:24:00.151Z,98944.60
2022-12-31T00:26:31.262Z,98935.80
2022-12-31T00:29:01.258Z,98944.40
2022-12-31T00:31:35.836Z,98936.20
2022-12-31T00:34:05.394Z,98939.20
2022-12-31T00:36:37.815Z,98929.20
2022-12-31T00:39:08.348Z,98934.20
2022-12-31T00:41:36.234Z,98935.40
2022-12-31T00:44:04.602Z,98939.80
2022-12-31T00:46:32.420Z,98948.80
2022-12-31T00:49:00.194Z,98944.40
2022-12-31T00:51:28.878Z,98936.20
2022-12-31T00:53:58.127Z,98940.00
2022-12-31T00:56:30.829Z,98940.40
2022-12-31T00:59:00.247Z,98944.80
2022-12-31T01:01:32.763Z,98937.80
2022-12-31T01:04:09.386Z,98933.60
2022-12-31T01:06:39.063Z,98915.60
2022-12-31T01:09:08.400Z,98915.00
2022-12-31T01:11:36.407Z,98902.20
2022-12-31T01:14:13.403Z,98903.80
2022-12-31T01:16:45.843Z,98888.40
2022-12-31T01:19:22.491Z,98881.00
2022-12-31T01:21:51.887Z,98895.40
2022-12-31T01:24:20.101Z,98905.00
2022-12-31T01:26:48.430Z,98910.60
2022-12-31T01:29:16.975Z,98923.80
2022-12-31T01:31:44.828Z,98937.20
2022-12-31T01:34:12.832Z,98943.80
2022-12-31T01:36:40.992Z,98948.40
2022-12-31T01:39:10.707Z,98951.20
2022-12-31T01:41:45.489Z,98953.20
2022-12-31T01:44:13.191Z,98945.80
2022-12-31T01:46:59.305Z,98933.20
2022-12-31T01:49:41.152Z,98931.00
2022-12-31T01:52:21.066Z,98924.60
2022-12-31T01:55:16.742Z,98913.80
2022-12-31T01:57:48.423Z,98925.60
2022-12-31T02:00:16.977Z,98921.60
2022-12-31T02:02:45.893Z,98914.20
2022-12-31T02:05:29.173Z,98913.40
2022-12-31T02:07:58.786Z,98909.20
2022-12-31T02:10:26.588Z,98922.20
2022-12-31T02:12:54.707Z,98936.00
2022-12-31T02:15:39.678Z,98941.20
2022-12-31T02:18:29.573Z,98936.20
2022-12-31T02:21:50.837Z,98935.60
2022-12-31T02:24:36.917Z,98942.80
2022-12-31T02:27:31.875Z,98940.20
2022-12-31T02:30:08.701Z,98941.00
2022-12-31T02:32:49.901Z,98942.80
2022-12-31T02:35:29.136Z,98945.80
2022-12-31T02:38:10.386Z,98940.60
2022-12-31T02:40:39.405Z,98942.20
2022-12-31T02:43:07.248Z,98941.60
2022-12-31T02:45:46.022Z,98943.40
2022-12-31T02:48:51.875Z,98953.40
2022-12-31T02:52:01.519Z,98952.20
2022-12-31T02:55:24.903Z,98956.40
2022-12-31T02:58:58.447Z,98953.20
2022-12-31T03:01:57.738Z,98952.20
2022-12-31T03:04:34.026Z,98947.80
2022-12-31T03:07:09.943Z,98940.40
2022-12-31T03:09:39.106Z,98925.40
2022-12-31T03:12:29.218Z,98919.20
2022-12-31T03:14:57.600Z,98920.00
2022-12-31T03:17:26.143Z,98916.80
2022-12-31T03:20:12.306Z,98919.20
2022-12-31T03:22:43.403Z,98905.20
2022-12-31T03:25:35.695Z,98904.00
2022-12-31T03:28:15.792Z,98898.80
2022-12-31T03:30:47.981Z,98892.00
2022-12-31T03:33:16.699Z,98897.60
2022-12-31T03:35:46.790Z,98877.40
2022-12-31T03:38:16.105Z,98866.80
2022-12-31T03:40:50.816Z,98857.60
2022-12-31T03:43:20.632Z,98845.80
2022-12-31T03:45:51.672Z,98839.60
2022-12-31T03:48:23.555Z,98837.00
2022-12-31T03:50:52.264Z,98845.00
2022-12-31T03:53:20.094Z,98855.40
2022-12-31T03:55:55.132Z,98855.60
2022-12-31T03:58:23.187Z,98847.80
2022-12-31T04:00:51.071Z,98842.40
2022-12-31T04:03:18.915Z,98827.80
2022-12-31T04:05:54.303Z,98820.00
2022-12-31T04:08:22.188Z,98827.00
2022-12-31T04:10:50.189Z,98815.60
2022-12-31T04:13:18.109Z,98818.00
2022-12-31T04:15:45.793Z,98808.20
2022-12-31T04:18:13.581Z,98786.00
2022-12-31T04:20:41.243Z,98806.80
2022-12-31T04:23:08.948Z,98802.60
2022-12-31T04:25:36.641Z,98804.80
2022-12-31T04:28:04.571Z,98807.80
2022-12-31T04:30:32.512Z,98800.60
2022-12-31T04:33:00.238Z,98798.40
2022-12-31T04:35:27.950Z,98798.00
2022-12-31T04:37:55.975Z,98797.80
2022-12-31T04:40:23.682Z,98810.60
2022-12-31T04:42:51.479Z,98807.80
2022-12-31T04:45:19.172Z,98811.00
2022-12-31T04:47:46.882Z,98809.00
2022-12-31T04:50:14.634Z,98812.40
2022-12-31T04:52:43.078Z,98811.00
2022-12-31T04:55:11.403Z,98802.00
2022-12-31T04:57:41.173Z,98801.40
2022-12-31T05:00:09.669Z,98799.00
2022-12-31T05:02:37.653Z,98794.60
2022-12-31T05:05:06.141Z,98805.20
2022-12-31T05:07:33.838Z,98798.60
2022-12-31T05:10:01.591Z,98802.40
2022-12-31T05:12:29.322Z,98804.00
2022-12-31T05:14:57.036Z,98806.20
2022-12-31T05:17:24.707Z,98801.20
2022-12-31T05:19:52.421Z,98806.40
2022-12-31T05:22:29.109Z,98802.20
2022-12-31T05:25:00.836Z,98804.00
2022-12-31T05:27:31.136Z,98805.00
2022-12-31T05:30:00.062Z,98807.40
2022-12-31T05:32:28.123Z,98812.00
2022-12-31T05:34:57.657Z,98812.40
2022-12-31T05:37:30.128Z,98808.40
2022-12-31T05:39:58.357Z,98815.00
2022-12-31T05:42:27.117Z,98807.20
2022-12-31T05:44:55.443Z,98809.20
2022-12-31T05:47:23.812Z,98805.60
2022-12-31T05:49:51.750Z,98812.40
2022-12-31T05:52:20.367Z,98819.60
2022-12-31T05:54:48.104Z,98811.40
2022-12-31T05:57:15.837Z,98821.00
2022-12-31T05:59:43.488Z,98818.00
2022-12-31T06:02:11.205Z,98816.60
2022-12-31T06:04:38.860Z,98826.20
2022-12-31T06:07:06.588Z,98830.20
2022-12-31T06:09:34.332Z,98834.60
2022-12-31T06:12:02.124Z,98850.80
2022-12-31T06:14:29.889Z,98852.60
2022-12-31T06:16:58.249Z,98862.60
2022-12-31T06:19:26.108Z,98862.60
2022-12-31T06:21:53.848Z,98866.00
2022-12-31T06:24:21.621Z,98866.60
2022-12-31T06:26:49.435Z,98863.20
2022-12-31T06:29:17.365Z,98872.60
2022-12-31T06:31:45.096Z,98873.00
2022-12-31T06:34:12.905Z,98869.00
2022-12-31T06:36:40.684Z,98879.20
2022-12-31T06:39:08.523Z,98881.60
2022-12-31T06:41:36.309Z,98881.80
2022-12-31T06:44:04.220Z,98873.00
2022-12-31T06:46:32.063Z,98877.80
2022-12-31T06:48:59.770Z,98868.80
2022-12-31T06:51:27.528Z,98876.40
2022-12-31T06:53:55.255Z,98883.00
2022-12-31T06:56:33.915Z,98889.80
2022-12-31T06:59:05.009Z,98886.80
2022-12-31T07:02:03.329Z,98881.80
2022-12-31T07:05:23.908Z,98876.00
2022-12-31T07:08:14.181Z,98894.60
2022-12-31T07:11:09.388Z,98902.80
2022-12-31T07:14:23.673Z,98900.60
2022-12-31T07:17:12.969Z,98916.00
2022-12-31T07:20:03.013Z,98919.60
2022-12-31T07:22:31.193Z,98926.60
2022-12-31T07:24:59.433Z,98922.00
2022-12-31T07:28:14.703Z,98926.60
2022-12-31T07:31:32.851Z,98936.60
2022-12-31T07:34:15.455Z,98931.80
2022-12-31T07:37:16.024Z,98949.40
2022-12-31T07:40:02.150Z,98958.20
2022-12-31T07:43:00.341Z,98955.80
2022-12-31T07:45:42.184Z,98953.00
2022-12-31T07:48:25.204Z,98964.40
2022-12-31T07:50:55.897Z,98953.40
2022-12-31T07:53:25.156Z,98958.20
2022-12-31T07:56:00.439Z,98959.00
2022-12-31T07:58:50.397Z,98953.80
2022-12-31T08:01:33.442Z,98963.80
2022-12-31T08:04:21.304Z,98970.00
2022-12-31T08:07:22.546Z,98978.20
2022-12-31T08:10:03.835Z,98978.80
2022-12-31T08:12:37.740Z,98980.20
2022-12-31T08:15:14.948Z,98979.60
2022-12-31T08:17:43.570Z,99008.60
2022-12-31T08:20:17.405Z,99024.40
2022-12-31T08:22:59.002Z,99016.20
2022-12-31T08:26:17.589Z,99014.80
2022-12-31T08:29:19.184Z,99023.80
2022-12-31T08:32:10.163Z,99043.00
2022-12-31T08:35:06.068Z,99042.20
2022-12-31T08:37:47.864Z,99041.60
2022-12-31T08:40:39.954Z,99051.40
2022-12-31T08:43:33.354Z,99055.60
2022-12-31T08:46:01.586Z,99069.20
2022-12-31T08:48:56.096Z,99070.60
2022-12-31T08:51:26.838Z,99075.20
2022-12-31T08:53:55.419Z,99076.60
2022-12-31T08:56:36.292Z,99082.20
2022-12-31T08:59:49.965Z,99089.60
2022-12-31T09:02:51.623Z,99082.20
2022-12-31T09:05:32.532Z,99081.00
2022-12-31T09:08:29.508Z,99091.00
2022-12-31T09:11:07.571Z,99090.20
2022-12-31T09:13:59.717Z,99102.80
2022-12-31T09:16:45.024Z,99095.40
2022-12-31T09:19:13.059Z,99094.60
2022-12-31T09:21:46.150Z,99097.80
2022-12-31T09:24:16.110Z,99105.60
2022-12-31T09:27:08.436Z,99104.20
2022-12-31T09:29:57.170Z,99098.20
2022-12-31T09:32:42.677Z,99102.40
2022-12-31T09:35:30.420Z,99103.00
2022-12-31T09:38:11.666Z,99107.20
2022-12-31T09:41:16.895Z,99108.00
2022-12-31T09:44:17.928Z,99117.00
2022-12-31T09:47:18.824Z,99115.20
2022-12-31T09:50:22.823Z,99101.40
2022-12-31T09:53:44.574Z,99103.20
2022-12-31T09:56:23.225Z,99103.80
2022-12-31T09:59:10.228Z,99116.40
2022-12-31T10:02:29.249Z,99113.20
2022-12-31T10:05:18.884Z,99094.20
2022-12-31T10:08:43.460Z,99100.80
2022-12-31T10:11:31.164Z,99097.00
2022-12-31T10:14:47.335Z,99103.00
2022-12-31T10:18:01.975Z,99102.20
2022-12-31T10:20:45.119Z,99102.00
2022-12-31T10:23:34.657Z,99098.40
2022-12-31T10:26:21.311Z,99094.00
2022-12-31T10:29:26.939Z,99102.60
2022-12-31T10:32:31.162Z,99110.00
2022-12-31T10:35:36.161Z,99113.80
2022-12-31T10:38:50.941Z,99115.00
2022-12-31T10:41:52.438Z,99110.80
2022-12-31T10:45:03.479Z,99115.40
2022-12-31T10:48:19.976Z,99113.80
2022-12-31T10:51:27.338Z,99117.40
2022-12-31T10:54:37.444Z,99114.20
2022-12-31T10:57:52.152Z,99113.20
2022-12-31T11:00:22.696Z,99113.60
2022-12-31T11:03:13.549Z,99106.00
2022-12-31T11:06:16.401Z,99106.00
2022-12-31T11:09:11.720Z,99103.60
2022-12-31T11:11:53.887Z,99093.40
2022-12-31T11:14:56.103Z,99096.80
2022-12-31T11:17:47.205Z,99110.80
2022-12-31T11:21:04.080Z,99109.20
2022-12-31T11:24:15.384Z,99108.00
2022-12-31T11:27:38.904Z,99124.40
2022-12-31T11:30:37.017Z,99114.60
2022-12-31T11:33:46.872Z,99110.40
2022-12-31T11:36:59.696Z,99098.20
2022-12-31T11:39:47.796Z,99101.80
2022-12-31T11:42:51.010Z,99100.40
2022-12-31T11:46:06.413Z,99098.60
2022-12-31T11:49:12.174Z,99102.20
2022-12-31T11:52:25.994Z,99091.20
2022-12-31T11:55:19.316Z,99091.40
2022-12-31T11:57:50.804Z,99087.40
2022-12-31T12:00:25.847Z,99081.00
2022-12-31T12:03:04.466Z,99083.00
2022-12-31T12:05:36.371Z,99087.40
2022-12-31T12:08:04.099Z,99088.00
2022-12-31T12:10:57.211Z,99080.40
2022-12-31T12:13:27.829Z,99077.80
2022-12-31T12:16:03.354Z,99072.80
2022-12-31T12:19:04.843Z,99069.20
2022-12-31T12:21:34.115Z,99071.80
2022-12-31T12:24:16.970Z,99071.20
2022-12-31T12:26:45.589Z,99065.60
2022-12-31T12:29:24.373Z,99062.40
2022-12-31T12:32:15.112Z,99060.00
2022-12-31T12:34:49.333Z,99054.40
2022-12-31T12:37:34.373Z,99059.40
2022-12-31T12:40:18.458Z,99050.00
2022-12-31T12:42:52.670Z,99027.20
2022-12-31T12:45:49.013Z,99031.00
2022-12-31T12:48:32.640Z,99035.20
2022-12-31T12:51:06.521Z,99028.80
2022-12-31T12:54:03.120Z,99029.80
2022-12-31T12:56:55.768Z,99023.60
2022-12-31T13:00:08.679Z,99025.00
2022-12-31T13:03:09.059Z,99024.80
2022-12-31T13:05:57.967Z,99032.00
2022-12-31T13:09:18.665Z,99034.40
2022-12-31T13:12:14.033Z,99029.40
2022-12-31T13:15:18.573Z,99018.60
2022-12-31T13:18:01.294Z,99017.60
2022-12-31T13:20:50.119Z,99018.40
2022-12-31T13:23:39.705Z,99013.80
2022-12-31T13:26:10.775Z,99006.00
2022-12-31T13:28:42.937Z,99000.40
2022-12-31T13:31:21.593Z,99005.80
2022-12-31T13:34:01.139Z,98991.60
2022-12-31T13:36:32.893Z,98985.60
2022-12-31T13:39:15.515Z,98975.40
2022-12-31T13:42:07.411Z,98981.80
2022-12-31T13:44:56.255Z,98969.20
2022-12-31T13:47:35.799Z,98981.00
2022-12-31T13:50:33.701Z,98976.00
2022-12-31T13:53:21.457Z,98972.80
2022-12-31T13:55:58.721Z,98959.20
2022-12-31T13:58:45.468Z,98952.80
2022-12-31T14:01:22.365Z,98952.80
2022-12-31T14:04:03.915Z,98960.80
2022-12-31T14:07:04.643Z,98960.60
2022-12-31T14:09:35.152Z,98961.80
2022-12-31T14:12:18.250Z,98959.60
2022-12-31T14:15:13.970Z,98958.20
2022-12-31T14:18:04.109Z,98953.40
2022-12-31T14:20:57.401Z,98953.80
2022-12-31T14:23:46.044Z,98941.40
2022-12-31T14:26:27.499Z,98959.80
2022-12-31T14:29:39.407Z,98958.60
2022-12-31T14:32:31.553Z,98974.20
2022-12-31T14:35:32.406Z,98965.40
2022-12-31T14:38:26.662Z,98972.00
2022-12-31T14:41:28.579Z,98974.20
2022-12-31T14:44:25.375Z,98975.80
2022-12-31T14:47:11.249Z,98971.60
2022-12-31T14:50:03.413Z,98974.00
2022-12-31T14:52:34.300Z,98963.40
2022-12-31T14:55:28.565Z,98950.80
2022-12-31T14:58:27.024Z,98950.40
2022-12-31T15:01:04.432Z,98947.00
2022-12-31T15:03:32.546Z,98955.20
2022-12-31T15:06:23.385Z,98952.80
2022-12-31T15:09:12.154Z,98951.80
2022-12-31T15:12:19.138Z,98943.80
2022-12-31T15:15:19.994Z,98951.00
2022-12-31T15:17:58.768Z,98948.80
2022-12-31T15:20:51.257Z,98938.20
2022-12-31T15:23:36.047Z,98947.80
2022-12-31T15:26:06.752Z,98939.00
2022-12-31T15:28:39.479Z,98951.00
2022-12-31T15:31:18.052Z,98954.20
2022-12-31T15:33:57.179Z,98954.60
2022-12-31T15:36:39.345Z,98968.80
2022-12-31T15:39:33.005Z,98971.40
2022-12-31T15:42:36.676Z,98968.00
2022-12-31T15:44:55.109Z,98980.60
2022-12-31T15:47:32.454Z,98979.40
2022-12-31T15:50:12.273Z,98986.00
2022-12-31T15:52:46.555Z,98989.40
2022-12-31T15:55:44.077Z,98987.20
2022-12-31T15:58:22.445Z,98990.00
2022-12-31T16:00:56.012Z,98988.00
2022-12-31T16:03:29.668Z,98982.00
2022-12-31T16:06:14.992Z,98985.40
2022-12-31T16:08:49.231Z,98991.00
2022-12-31T16:11:18.467Z,98977.20
2022-12-31T16:13:52.568Z,98981.60
2022-12-31T16:16:29.063Z,98972.60
2022-12-31T16:18:58.901Z,98972.00
2022-12-31T16:21:36.064Z,98967.40
2022-12-31T16:24:28.844Z,98967.20
2022-12-31T16:27:02.940Z,98955.60
2022-12-31T16:29:30.954Z,98953.20
2022-12-31T16:31:58.683Z,98958.00
2022-12-31T16:34:28.254Z,98958.20
2022-12-31T16:37:05.960Z,98963.40
2022-12-31T16:39:38.795Z,98972.60
2022-12-31T16:42:28.496Z,98979.60
2022-12-31T16:44:58.004Z,98978.60
2022-12-31T16:47:36.612Z,98976.60
2022-12-31T16:50:16.515Z,98962.20
2022-12-31T16:52:48.667Z,98965.80
2022-12-31T16:55:24.465Z,98966.20
2022-12-31T16:58:32.547Z,98970.80
2022-12-31T17:01:17.773Z,98968.00
2022-12-31T17:03:55.462Z,98969.80
2022-12-31T17:06:24.323Z,98974.40
2022-12-31T17:08:59.479Z,98971.40
2022-12-31T17:11:33.401Z,98974.00
2022-12-31T17:14:16.116Z,98980.40
2022-12-31T17:17:06.934Z,98978.80
2022-12-31T17:19:47.399Z,98983.40
2022-12-31T17:22:35.823Z,98983.60
2022-12-31T17:25:08.831Z,98981.80
2022-12-31T17:27:36.966Z,98979.40
2022-12-31T17:30:29.426Z,98976.60
2022-12-31T17:33:24.710Z,98985.40
2022-12-31T17:36:15.261Z,98977.40
2022-12-31T17:38:43.331Z,98980.40
2022-12-31T17:41:23.264Z,98982.60
2022-12-31T17:43:54.955Z,98986.00
2022-12-31T17:46:24.971Z,98976.20
2022-12-31T17:49:02.963Z,98980.60
2022-12-31T17:51:30.696Z,98978.20
2022-12-31T17:54:00.458Z,98978.60
2022-12-31T17:56:28.440Z,98980.80
2022-12-31T17:58:56.143Z,98972.00
2022-12-31T18:01:24.300Z,98982.40
2022-12-31T18:03:52.227Z,98982.20
2022-12-31T18:06:20.104Z,98982.80
2022-12-31T18:08:47.910Z,98982.40
2022-12-31T18:11:21.042Z,98973.80
2022-12-31T18:13:49.603Z,98970.80
2022-12-31T18:16:17.630Z,98963.00
2022-12-31T18:18:45.768Z,98966.60
2022-12-31T18:21:25.268Z,98979.80
2022-12-31T18:26:24.061Z,98976.80
2022-12-31T18:28:53.159Z,98981.80
2022-12-31T18:31:29.557Z,98974.00
2022-12-31T18:33:59.196Z,98968.00
2022-12-31T18:36:28.767Z,98964.60
2022-12-31T18:38:56.536Z,98961.20
2022-12-31T18:41:45.674Z,98969.80
2022-12-31T18:44:15.332Z,98985.20
2022-12-31T18:46:43.377Z,98988.80
2022-12-31T18:49:11.154Z,98990.40
2022-12-31T18:51:38.847Z,98995.80
2022-12-31T18:54:10.227Z,98991.00
2022-12-31T18:56:43.212Z,99001.00
2022-12-31T18:59:15.562Z,99000.20
2022-12-31T19:01:43.479Z,98999.60
2022-12-31T19:04:27.139Z,98998.20
2022-12-31T19:06:56.662Z,99001.40
2022-12-31T19:09:44.669Z,99012.60
2022-12-31T19:12:14.612Z,99011.20
2022-12-31T19:14:42.784Z,99008.40
2022-12-31T19:19:37.154Z,99016.60
2022-12-31T19:22:04.826Z,99019.40
2022-12-31T19:24:32.554Z,99024.60
2022-12-31T19:27:01.254Z,99025.80
2022-12-31T19:29:29.104Z,99029.80
2022-12-31T19:31:58.186Z,99030.60
2022-12-31T19:34:26.061Z,99031.60
2022-12-31T19:36:53.743Z,99020.00
2022-12-31T19:39:21.675Z,99033.40
2022-12-31T19:41:56.564Z,99054.00
2022-12-31T19:44:26.924Z,99064.20
2022-12-31T19:46:54.682Z,99069.20
2022-12-31T19:49:23.885Z,99064.20
2022-12-31T19:51:51.646Z,99080.60
2022-12-31T19:54:19.503Z,99089.20
2022-12-31T19:56:47.178Z,99087.60
2022-12-31T19:59:14.893Z,99075.60
2022-12-31T20:01:42.742Z,99080.20
2022-12-31T20:04:10.496Z,99081.80
2022-12-31T20:06:38.255Z,99091.80
2022-12-31T20:09:05.918Z,99099.40
2022-12-31T20:11:33.611Z,99092.60
2022-12-31T20:14:01.303Z,99099.40
2022-12-31T20:16:33.655Z,99100.40
2022-12-31T20:19:01.526Z,99108.40
2022-12-31T20:21:29.812Z,99126.40
2022-12-31T20:23:57.542Z,99135.00
2022-12-31T20:26:25.845Z,99132.60
2022-12-31T20:28:53.944Z,99126.80
2022-12-31T20:31:25.143Z,99134.20
2022-12-31T20:33:54.346Z,99141.60
2022-12-31T20:36:23.419Z,99139.00
2022-12-31T20:38:51.535Z,99146.60
2022-12-31T20:41:22.685Z,99148.20
2022-12-31T20:43:51.485Z,99147.40
2022-12-31T20:46:25.087Z,99146.60
2022-12-31T20:48:56.314Z,99146.80
2022-12-31T20:51:26.387Z,99154.40
2022-12-31T20:53:58.488Z,99161.00
2022-12-31T20:56:29.585Z,99171.00
2022-12-31T20:58:58.058Z,99174.60
2022-12-31T21:01:36.300Z,99182.00
2022-12-31T21:04:14.652Z,99191.40
2022-12-31T21:06:42.541Z,99201.80
2022-12-31T21:09:10.606Z,99190.20
2022-12-31T21:11:57.169Z,99202.40
2022-12-31T21:14:24.964Z,99203.80
2022-12-31T21:16:52.748Z,99215.00
2022-12-31T21:19:20.626Z,99214.60
2022-12-31T21:21:49.715Z,99212.40
2022-12-31T21:24:23.294Z,99214.20
2022-12-31T21:26:55.786Z,99213.80
2022-12-31T21:29:23.590Z,99214.20
2022-12-31T21:31:51.535Z,99215.80
2022-12-31T21:34:19.301Z,99216.40
2022-12-31T21:36:47.193Z,99223.80
2022-12-31T21:39:15.351Z,99225.40
2022-12-31T21:41:51.953Z,99223.20
2022-12-31T21:44:25.704Z,99226.20
2022-12-31T21:47:34.853Z,99229.60
2022-12-31T21:50:04.693Z,99243.60
2022-12-31T21:52:33.908Z,99249.00
2022-12-31T21:55:23.072Z,99245.60
2022-12-31T22:00:58.449Z,99253.60
2022-12-31T22:03:29.634Z,99249.80
2022-12-31T22:06:02.875Z,99253.00
2022-12-31T22:08:31.517Z,99261.60
2022-12-31T22:10:59.258Z,99266.40
2022-12-31T22:13:26.997Z,99270.60
2022-12-31T22:16:04.200Z,99275.00
2022-12-31T22:18:38.731Z,99285.60
2022-12-31T22:21:19.937Z,99280.80
2022-12-31T22:23:51.931Z,99277.40
2022-12-31T22:26:22.381Z,99277.60
2022-12-31T22:28:51.341Z,99271.00
2022-12-31T22:31:24.329Z,99279.00
2022-12-31T22:33:53.390Z,99284.20
2022-12-31T22:36:23.538Z,99294.40
2022-12-31T22:38:57.266Z,99292.60
2022-12-31T22:41:27.462Z,99299.80
2022-12-31T22:44:04.741Z,99302.40
2022-12-31T22:46:34.295Z,99297.00
2022-12-31T22:49:04.243Z,99305.80
2022-12-31T22:51:57.578Z,99307.60
2022-12-31T22:54:20.705Z,99323.20
2022-12-31T22:56:48.490Z,99325.40
2022-12-31T22:59:16.207Z,99330.80
2022-12-31T23:01:43.921Z,99328.80
2022-12-31T23:04:12.156Z,99333.40
2022-12-31T23:06:46.168Z,99324.40
2022-12-31T23:09:35.555Z,99328.20
2022-12-31T23:12:07.096Z,99326.60
2022-12-31T23:14:53.711Z,99336.00
2022-12-31T23:17:45.750Z,99345.00
2022-12-31T23:20:41.263Z,99342.60
2022-12-31T23:23:15.855Z,99336.20
2022-12-31T23:25:48.622Z,99354.00
2022-12-31T23:28:24.227Z,99362.20
2022-12-31T23:30:52.686Z,99369.60
2022-12-31T23:33:29.252Z,99350.40
2022-12-31T23:36:06.038Z,99340.80
2022-12-31T23:38:33.759Z,99374.00
2022-12-31T23:41:11.524Z,99392.60
2022-12-31T23:43:39.253Z,99398.60
2022-12-31T23:46:09.343Z,99382.20
2022-12-31T23:48:37.217Z,99395.40
2022-12-31T23:51:05.372Z,99365.60
2022-12-31T23:53:33.363Z,99398.20
2022-12-31T23:56:16.281Z,99414.60
2022-12-31T23:58:48.841Z,99422.60
